Time;durP1;ratioP1;P1;durP2;ratioP2;P2;SDS_P1;SDS_P2;PMS_P1;PMS_P2;Temp;Humidity;BMP_temperature;BMP_pressure;BME280_temperature;BME280_humidity;BME280_pressure;Samples;Min_cycle;Max_cycle;Signal;HPM_P1;HPM_P2
2022/12/08 00:02:03;;;;;;;36.87;17.10;;;3.20;99.90;;;;;;4979017;28;20678;-58
2022/12/08 00:09:20;;;;;;;30.37;16.93;;;3.20;99.90;;;;;;5006260;28;20570;-59
2022/12/08 00:10:19;;;;;;;34.37;17.13;;;3.20;99.90;;;;;;4927489;29;20763;-59
2022/12/08 00:13:07;;;;;;;33.17;16.13;;;3.10;99.90;;;;;;4972879;28;20203;-58
2022/12/08 00:15:37;;;;;;;33.70;16.60;;;3.10;99.90;;;;;;4987105;28;20203;-58
2022/12/08 00:18:05;;;;;;;32.27;17.67;;;3.10;99.90;;;;;;4981155;28;20348;-58
2022/12/08 00:20:36;;;;;;;35.97;17.30;;;3.10;99.90;;;;;;5067810;28;20199;-58
2022/12/08 00:23:04;;;;;;;28.07;16.47;;;3.10;99.90;;;;;;4984926;28;20219;-58
2022/12/08 00:25:36;;;;;;;35.57;17.77;;;3.10;99.90;;;;;;4983544;28;20190;-58
2022/12/08 00:28:04;;;;;;;35.17;17.67;;;3.00;99.90;;;;;;4978650;28;20195;-58
2022/12/08 00:30:33;;;;;;;37.10;19.03;;;3.00;99.90;;;;;;4983677;28;20199;-58
2022/12/08 00:33:02;;;;;;;40.17;18.23;;;3.00;99.90;;;;;;4985271;28;20202;-58
2022/12/08 00:35:31;;;;;;;34.80;18.50;;;3.00;99.90;;;;;;4981782;28;20204;-58
2022/12/08 00:37:59;;;;;;;32.10;18.10;;;3.00;99.90;;;;;;4982331;28;20206;-58
2022/12/08 00:40:28;;;;;;;36.30;19.57;;;3.00;99.90;;;;;;4975567;28;20261;-58
2022/12/08 00:42:56;;;;;;;36.03;17.70;;;3.00;99.90;;;;;;4984430;28;20227;-58
2022/12/08 00:45:25;;;;;;;33.90;17.70;;;3.00;99.90;;;;;;4988148;28;20210;-58
2022/12/08 00:47:53;;;;;;;40.33;19.27;;;2.90;99.90;;;;;;4998633;28;20654;-58
2022/12/08 00:50:23;;;;;;;38.57;18.97;;;2.90;99.90;;;;;;4984153;28;20230;-58
2022/12/08 00:52:51;;;;;;;39.57;19.20;;;2.90;99.90;;;;;;4984586;28;20191;-58
2022/12/08 00:55:19;;;;;;;38.27;19.57;;;2.90;99.90;;;;;;4977031;28;20199;-58
2022/12/08 00:57:48;;;;;;;39.20;19.37;;;2.90;99.90;;;;;;5004635;28;20206;-58
2022/12/08 01:00:17;;;;;;;42.83;19.53;;;2.90;99.90;;;;;;4986773;28;20208;-58
2022/12/08 01:02:45;;;;;;;41.80;20.50;;;2.90;99.90;;;;;;4976555;28;20221;-58
2022/12/08 01:05:14;;;;;;;38.07;19.73;;;2.90;99.90;;;;;;4982241;28;20191;-58
2022/12/08 01:07:43;;;;;;;35.97;18.80;;;2.80;99.90;;;;;;4979171;28;20248;-58
2022/12/08 01:10:12;;;;;;;45.53;20.10;;;2.90;99.90;;;;;;4983922;28;20562;-58
2022/12/08 01:12:40;;;;;;;35.00;18.93;;;2.80;99.90;;;;;;4985789;28;20194;-58
2022/12/08 01:15:09;;;;;;;42.20;20.23;;;2.80;99.90;;;;;;4982761;28;20791;-58
2022/12/08 01:17:38;;;;;;;42.73;19.43;;;2.80;99.90;;;;;;4971862;28;20235;-57
2022/12/08 01:20:07;;;;;;;39.67;19.67;;;2.80;99.90;;;;;;4995102;28;20707;-58
2022/12/08 01:22:36;;;;;;;39.27;19.80;;;2.80;99.90;;;;;;4979001;28;20212;-58
2022/12/08 01:25:06;;;;;;;39.37;18.33;;;2.80;99.90;;;;;;4998432;28;20550;-58
2022/12/08 01:27:34;;;;;;;45.13;19.67;;;2.70;99.90;;;;;;4982146;28;20195;-59
2022/12/08 01:30:03;;;;;;;41.17;18.20;;;2.70;99.90;;;;;;4977853;28;20202;-58
2022/12/08 01:32:32;;;;;;;36.13;18.13;;;2.70;99.90;;;;;;4996717;28;20245;-58
2022/12/08 01:35:00;;;;;;;39.60;17.93;;;2.70;99.90;;;;;;4976745;28;20192;-58
2022/12/08 01:37:29;;;;;;;39.57;17.50;;;2.70;99.90;;;;;;4980913;28;20233;-58
2022/12/08 01:39:58;;;;;;;40.20;18.23;;;2.70;99.90;;;;;;4991146;28;20203;-58
2022/12/08 01:42:28;;;;;;;32.90;17.43;;;2.80;99.90;;;;;;5005204;28;20195;-58
2022/12/08 01:45:01;;;;;;;35.97;17.60;;;2.80;99.90;;;;;;4987845;28;20205;-58
2022/12/08 01:47:36;;;;;;;32.20;17.67;;;2.80;99.90;;;;;;4987851;28;20203;-58
2022/12/08 01:50:08;;;;;;;32.33;18.50;;;2.80;99.90;;;;;;4982020;28;20206;-58
2022/12/08 01:52:40;;;;;;;33.63;18.07;;;2.80;99.90;;;;;;4981586;28;20208;-58
2022/12/08 01:55:13;;;;;;;40.90;18.93;;;2.80;99.90;;;;;;4981437;28;20211;-58
2022/12/08 01:57:46;;;;;;;36.43;18.60;;;2.80;99.90;;;;;;4980216;28;20206;-58
2022/12/08 02:00:17;;;;;;;41.10;18.47;;;2.80;99.90;;;;;;4992398;28;20214;-58
2022/12/08 02:02:54;;;;;;;38.23;18.10;;;2.90;99.90;;;;;;4988651;28;20301;-57
2022/12/08 02:05:25;;;;;;;35.53;18.87;;;2.90;99.90;;;;;;4987460;28;20198;-58
2022/12/08 02:07:55;;;;;;;35.53;18.70;;;2.90;99.90;;;;;;4978026;28;20219;-58
2022/12/08 02:10:27;;;;;;;37.90;19.17;;;2.90;99.90;;;;;;4979681;28;20218;-58
2022/12/08 02:12:58;;;;;;;41.30;19.10;;;3.00;99.90;;;;;;4990193;28;20195;-58
2022/12/08 02:15:35;;;;;;;34.10;18.70;;;3.00;99.90;;;;;;4992955;28;20742;-58
2022/12/08 02:18:25;;;;;;;35.57;18.00;;;3.00;99.90;;;;;;4987187;28;20680;-58
2022/12/08 02:20:57;;;;;;;39.53;18.43;;;3.00;99.90;;;;;;4979193;28;20218;-58
2022/12/08 02:23:36;;;;;;;34.20;18.00;;;3.00;99.90;;;;;;4983380;28;20211;-58
2022/12/08 02:26:46;;;;;;;36.07;17.60;;;3.00;99.90;;;;;;4978865;28;20202;-57
2022/12/08 02:29:44;;;;;;;37.03;17.80;;;3.00;99.90;;;;;;4975050;28;20191;-58
2022/12/08 02:32:34;;;;;;;35.00;18.23;;;3.10;99.90;;;;;;4982513;28;20203;-58
2022/12/08 02:35:10;;;;;;;31.60;17.13;;;3.10;99.90;;;;;;4973501;28;20226;-58
2022/12/08 02:37:45;;;;;;;35.40;18.30;;;3.10;99.90;;;;;;4993389;28;20203;-58
2022/12/08 02:40:21;;;;;;;40.00;18.63;;;3.20;99.90;;;;;;4977406;28;20202;-58
2022/12/08 02:42:57;;;;;;;34.20;17.90;;;3.20;99.90;;;;;;4979700;28;20195;-58
2022/12/08 02:45:28;;;;;;;33.87;17.73;;;3.10;99.90;;;;;;4981452;28;20202;-58
2022/12/08 02:47:58;;;;;;;36.23;17.40;;;3.10;99.90;;;;;;4962785;28;20199;-58
2022/12/08 02:50:28;;;;;;;34.10;17.57;;;3.10;99.90;;;;;;4980046;28;20190;-58
2022/12/08 02:52:56;;;;;;;26.70;16.50;;;3.00;99.90;;;;;;4988081;28;20195;-58
2022/12/08 02:55:28;;;;;;;31.80;17.03;;;3.00;99.90;;;;;;4973560;28;20204;-58
2022/12/08 02:58:17;;;;;;;38.20;17.10;;;2.90;99.90;;;;;;4979577;28;20273;-58
2022/12/08 03:01:01;;;;;;;33.00;17.00;;;2.80;99.90;;;;;;4987219;28;20210;-58
2022/12/08 03:03:41;;;;;;;26.53;15.37;;;2.80;99.90;;;;;;4975562;28;20584;-58
2022/12/08 03:06:20;;;;;;;35.40;17.03;;;2.70;99.90;;;;;;4984470;28;20198;-59
2022/12/08 03:08:54;;;;;;;30.47;16.53;;;2.70;99.90;;;;;;5013526;28;20664;-58
2022/12/08 03:11:28;;;;;;;41.07;17.63;;;2.60;99.90;;;;;;4989644;28;20195;-58
2022/12/08 03:14:00;;;;;;;34.37;16.40;;;2.50;99.90;;;;;;4986760;28;20206;-58
2022/12/08 03:16:34;;;;;;;34.87;16.50;;;2.40;99.90;;;;;;4985672;28;20289;-58
2022/12/08 03:19:07;;;;;;;34.43;16.17;;;2.40;99.90;;;;;;4986201;28;20205;-58
2022/12/08 03:21:41;;;;;;;32.23;16.93;;;2.30;99.90;;;;;;5014971;28;20210;-58
2022/12/08 03:24:12;;;;;;;30.83;16.77;;;2.40;99.90;;;;;;4977781;28;20217;-58
2022/12/08 03:26:46;;;;;;;39.70;17.27;;;2.40;99.90;;;;;;4977687;28;20675;-58
2022/12/08 03:29:15;;;;;;;35.40;17.73;;;2.40;99.90;;;;;;4986386;28;20671;-58
2022/12/08 03:31:50;;;;;;;36.00;17.20;;;2.30;99.90;;;;;;4980806;28;20199;-58
2022/12/08 03:34:21;;;;;;;29.03;16.83;;;2.40;99.90;;;;;;4976262;28;20248;-58
2022/12/08 03:36:51;;;;;;;31.03;17.03;;;2.40;99.90;;;;;;4978061;28;20217;-59
2022/12/08 03:39:20;;;;;;;36.00;17.00;;;2.30;99.90;;;;;;4979492;28;20207;-58
2022/12/08 03:41:48;;;;;;;40.27;18.13;;;2.30;99.90;;;;;;4987956;28;20590;-58
2022/12/08 03:44:16;;;;;;;30.83;17.67;;;2.30;99.90;;;;;;4983021;28;20215;-58
2022/12/08 03:46:45;;;;;;;34.70;17.63;;;2.30;99.90;;;;;;4982525;28;20530;-57
2022/12/08 03:49:13;;;;;;;33.00;18.03;;;2.40;99.90;;;;;;4973963;28;20669;-58
2022/12/08 03:51:42;;;;;;;36.57;18.13;;;2.40;99.90;;;;;;4984810;28;20206;-57
2022/12/08 03:54:11;;;;;;;33.87;17.47;;;2.50;99.90;;;;;;4977626;28;20214;-58
2022/12/08 03:56:40;;;;;;;31.43;17.33;;;2.50;99.90;;;;;;4976867;28;20206;-58
2022/12/08 03:59:10;;;;;;;37.60;17.87;;;2.50;99.90;;;;;;4987475;28;20191;-58
2022/12/08 04:01:38;;;;;;;40.83;18.70;;;2.40;99.90;;;;;;5013589;28;20523;-57
2022/12/08 04:04:06;;;;;;;39.93;18.10;;;2.40;99.90;;;;;;4983744;28;20230;-59
2022/12/08 04:06:35;;;;;;;34.93;18.33;;;2.40;99.90;;;;;;4982637;28;20199;-58
2022/12/08 04:09:03;;;;;;;32.67;17.97;;;2.40;99.90;;;;;;4983199;28;20650;-58
2022/12/08 04:11:33;;;;;;;38.87;19.23;;;2.40;99.90;;;;;;4979641;28;20203;-59
2022/12/08 04:14:01;;;;;;;32.40;18.07;;;2.40;99.90;;;;;;4974357;28;20191;-58
2022/12/08 04:16:29;;;;;;;30.53;17.43;;;2.40;99.90;;;;;;4982023;28;20239;-58
2022/12/08 04:18:58;;;;;;;36.33;19.13;;;2.40;99.90;;;;;;4985704;28;20582;-58
2022/12/08 04:21:28;;;;;;;36.23;18.20;;;2.50;99.90;;;;;;4979818;28;20214;-57
2022/12/08 04:23:57;;;;;;;36.80;18.07;;;2.50;99.90;;;;;;4990779;28;20660;-58
2022/12/08 04:26:28;;;;;;;39.30;18.77;;;2.50;99.90;;;;;;4979901;28;20196;-58
2022/12/08 04:28:58;;;;;;;41.33;18.57;;;2.50;99.90;;;;;;4984295;28;20294;-58
2022/12/08 04:31:26;;;;;;;39.73;19.57;;;2.50;99.90;;;;;;4992655;28;20211;-58
2022/12/08 04:33:55;;;;;;;38.60;20.70;;;2.50;99.90;;;;;;4982829;28;20775;-58
2022/12/08 04:36:23;;;;;;;44.70;20.80;;;2.50;99.90;;;;;;4988796;28;20581;-58
2022/12/08 04:38:51;;;;;;;38.93;20.03;;;2.50;99.90;;;;;;4984627;28;20203;-58
2022/12/08 04:41:20;;;;;;;49.43;19.93;;;2.50;99.90;;;;;;4985034;28;20202;-58
2022/12/08 04:43:48;;;;;;;37.27;19.93;;;2.50;99.90;;;;;;4981595;28;20214;-57
2022/12/08 04:46:18;;;;;;;39.97;19.23;;;2.50;99.90;;;;;;4985854;28;20194;-58
2022/12/08 04:48:46;;;;;;;35.63;19.10;;;2.50;99.90;;;;;;5020631;28;20286;-58
2022/12/08 04:51:17;;;;;;;38.30;19.03;;;2.50;99.90;;;;;;4982038;28;20205;-58
2022/12/08 04:53:46;;;;;;;37.50;18.37;;;2.50;99.90;;;;;;4979366;28;20213;-58
2022/12/08 04:56:15;;;;;;;36.77;18.97;;;2.40;99.90;;;;;;4980115;28;20282;-58
2022/12/08 04:58:43;;;;;;;38.10;18.67;;;2.40;99.90;;;;;;4985638;28;20200;-58
2022/12/08 05:01:12;;;;;;;40.70;17.57;;;2.40;99.90;;;;;;4980798;28;20196;-57
2022/12/08 05:03:42;;;;;;;34.13;16.83;;;2.40;99.90;;;;;;4993455;28;20557;-57
2022/12/08 05:06:13;;;;;;;31.37;16.43;;;2.40;99.90;;;;;;5007840;28;20203;-58
2022/12/08 05:08:42;;;;;;;31.97;16.57;;;2.40;99.90;;;;;;4982349;28;20206;-58
2022/12/08 05:11:12;;;;;;;35.40;16.23;;;2.40;99.90;;;;;;4980777;28;20223;-58
2022/12/08 05:13:40;;;;;;;36.40;16.77;;;2.40;99.90;;;;;;4985342;28;20198;-58
2022/12/08 05:16:10;;;;;;;29.43;16.40;;;2.30;99.90;;;;;;4979140;28;20258;-58
2022/12/08 05:18:40;;;;;;;30.90;16.10;;;2.30;99.90;;;;;;4977740;28;20195;-58
2022/12/08 05:21:10;;;;;;;28.73;16.13;;;2.30;99.90;;;;;;4978069;28;20539;-58
2022/12/08 05:23:39;;;;;;;30.77;15.53;;;2.30;99.90;;;;;;4977813;28;20550;-57
2022/12/08 05:26:07;;;;;;;29.40;15.03;;;2.30;99.90;;;;;;4974424;28;20226;-57
2022/12/08 05:28:35;;;;;;;31.60;16.60;;;2.30;99.90;;;;;;4981045;28;20198;-58
2022/12/08 05:31:10;;;;;;;30.20;16.30;;;2.30;99.90;;;;;;4985226;28;20210;-58
2022/12/08 05:33:39;;;;;;;25.53;15.30;;;2.30;99.90;;;;;;4977208;28;20200;-58
2022/12/08 05:36:09;;;;;;;25.53;14.97;;;2.40;99.90;;;;;;5011975;28;20202;-58
2022/12/08 05:38:37;;;;;;;35.03;14.83;;;2.40;99.90;;;;;;4993809;28;20199;-58
2022/12/08 05:41:07;;;;;;;32.73;14.63;;;2.40;99.90;;;;;;5011462;28;20203;-57
2022/12/08 05:43:36;;;;;;;32.17;14.70;;;2.40;99.90;;;;;;5005149;28;20199;-58
2022/12/08 05:46:04;;;;;;;28.37;14.47;;;2.40;99.90;;;;;;4979240;28;20215;-58
2022/12/08 05:48:33;;;;;;;28.77;14.10;;;2.40;99.90;;;;;;5010343;28;20191;-58
2022/12/08 05:51:02;;;;;;;27.13;13.50;;;2.50;99.90;;;;;;4986343;28;20207;-58
2022/12/08 05:53:32;;;;;;;24.27;14.27;;;2.50;99.90;;;;;;4985400;28;20191;-58
2022/12/08 05:56:00;;;;;;;24.27;14.13;;;2.50;99.90;;;;;;4979651;28;20282;-58
2022/12/08 05:58:28;;;;;;;27.70;12.53;;;2.60;99.90;;;;;;4987063;28;20199;-58
2022/12/08 06:00:56;;;;;;;27.47;13.10;;;2.60;99.90;;;;;;4992276;28;20684;-58
2022/12/08 06:03:25;;;;;;;27.00;12.90;;;2.60;99.90;;;;;;4979352;28;20687;-58
2022/12/08 06:05:54;;;;;;;23.73;12.50;;;2.70;99.90;;;;;;4984931;28;20214;-58
2022/12/08 06:08:24;;;;;;;21.73;11.80;;;2.70;99.90;;;;;;4977720;28;20210;-58
2022/12/08 06:10:54;;;;;;;25.57;11.53;;;2.70;99.90;;;;;;4984467;28;20226;-57
2022/12/08 06:13:22;;;;;;;21.53;11.97;;;2.70;99.90;;;;;;4985837;28;20199;-58
2022/12/08 06:15:51;;;;;;;19.73;11.33;;;2.70;99.90;;;;;;4985078;28;20237;-58
2022/12/08 06:18:19;;;;;;;20.23;10.87;;;2.70;99.90;;;;;;4985341;28;20202;-58
2022/12/08 06:20:47;;;;;;;20.33;10.50;;;2.80;99.90;;;;;;4984592;28;20199;-58
2022/12/08 06:23:16;;;;;;;18.53;10.63;;;2.80;99.90;;;;;;4985860;28;20229;-58
2022/12/08 06:25:44;;;;;;;21.17;10.50;;;2.80;99.90;;;;;;4980079;28;20574;-57
2022/12/08 06:28:14;;;;;;;20.93;10.20;;;2.80;99.90;;;;;;4982181;28;20203;-58
2022/12/08 06:30:42;;;;;;;21.70;10.17;;;2.80;99.90;;;;;;4982881;28;20207;-58
2022/12/08 06:33:10;;;;;;;17.80;9.90;;;2.90;99.90;;;;;;4981465;28;20581;-58
2022/12/08 06:35:38;;;;;;;17.70;9.47;;;2.90;99.90;;;;;;4983923;28;20199;-58
2022/12/08 06:38:06;;;;;;;18.73;9.17;;;2.90;99.90;;;;;;4986126;28;20203;-58
2022/12/08 06:40:35;;;;;;;18.67;9.13;;;3.00;99.90;;;;;;5010418;28;20195;-58
2022/12/08 06:43:04;;;;;;;16.07;9.03;;;3.00;99.90;;;;;;4985332;28;20590;-58
2022/12/08 06:45:33;;;;;;;13.27;9.37;;;3.10;99.90;;;;;;4985609;28;20215;-58
2022/12/08 06:48:02;;;;;;;18.47;9.60;;;3.10;99.90;;;;;;4981825;28;20207;-58
2022/12/08 06:50:32;;;;;;;17.23;8.77;;;3.10;99.90;;;;;;4983166;28;20198;-58
2022/12/08 06:53:00;;;;;;;22.10;8.97;;;3.10;99.90;;;;;;4983848;28;20554;-58
2022/12/08 06:55:35;;;;;;;14.90;9.23;;;3.10;99.90;;;;;;4978016;28;20223;-57
2022/12/08 06:58:23;;;;;;;18.97;8.10;;;3.20;99.90;;;;;;4982269;28;20201;-58
2022/12/08 07:00:53;;;;;;;13.27;8.07;;;3.10;99.90;;;;;;4994012;28;20663;-58
2022/12/08 07:03:22;;;;;;;23.63;12.20;;;3.20;99.90;;;;;;4980194;28;20262;-58
2022/12/08 07:05:50;;;;;;;23.17;10.90;;;3.10;99.90;;;;;;4980203;28;20302;-57
2022/12/08 07:08:19;;;;;;;17.77;9.63;;;3.10;99.90;;;;;;4982817;28;20195;-58
2022/12/08 07:10:47;;;;;;;23.73;11.23;;;3.10;99.90;;;;;;4983738;28;20231;-57
2022/12/08 07:13:15;;;;;;;27.20;11.87;;;3.10;99.90;;;;;;4981403;28;20196;-58
2022/12/08 07:15:44;;;;;;;24.87;11.47;;;3.20;99.90;;;;;;4982392;28;20191;-58
2022/12/08 07:18:13;;;;;;;23.97;10.77;;;3.20;99.90;;;;;;4988805;28;20200;-58
2022/12/08 07:20:41;;;;;;;15.87;10.00;;;3.20;99.90;;;;;;4985894;28;20210;-58
2022/12/08 07:23:10;;;;;;;15.53;9.00;;;3.20;99.90;;;;;;4985692;28;20264;-58
2022/12/08 07:25:38;;;;;;;16.23;9.80;;;3.20;99.90;;;;;;4979826;28;20301;-58
2022/12/08 07:28:10;;;;;;;17.00;10.27;;;3.20;99.90;;;;;;4981137;28;20202;-58
2022/12/08 07:30:39;;;;;;;19.50;10.50;;;3.20;99.90;;;;;;4991060;28;20210;-58
2022/12/08 07:33:07;;;;;;;18.40;9.90;;;3.20;99.90;;;;;;4985349;28;20199;-57
2022/12/08 07:35:36;;;;;;;17.77;10.27;;;3.20;99.90;;;;;;4972124;28;20214;-57
2022/12/08 07:38:05;;;;;;;22.77;10.73;;;3.20;99.90;;;;;;4976935;28;20357;-57
2022/12/08 07:40:33;;;;;;;19.10;10.50;;;3.20;99.90;;;;;;4975829;28;20561;-58
2022/12/08 07:43:01;;;;;;;14.17;10.63;;;3.20;99.90;;;;;;4989472;28;20218;-57
2022/12/08 07:45:30;;;;;;;20.93;10.73;;;3.20;99.90;;;;;;4981080;28;20222;-57
2022/12/08 07:47:59;;;;;;;19.57;10.47;;;3.20;99.90;;;;;;4971879;28;20703;-57
2022/12/08 07:50:27;;;;;;;20.33;11.33;;;3.20;99.90;;;;;;4971553;28;20207;-57
2022/12/08 07:52:57;;;;;;;22.30;10.47;;;3.20;99.90;;;;;;4984676;28;20214;-57
2022/12/08 07:55:26;;;;;;;17.33;10.90;;;3.20;99.90;;;;;;4995605;28;20285;-58
2022/12/08 07:57:54;;;;;;;23.70;11.60;;;3.30;99.90;;;;;;5002707;28;20267;-57
2022/12/08 08:00:23;;;;;;;17.10;10.63;;;3.20;99.90;;;;;;4995499;28;20205;-57
2022/12/08 08:02:52;;;;;;;18.17;11.30;;;3.20;99.90;;;;;;4981906;28;20207;-58
2022/12/08 08:05:20;;;;;;;16.70;10.97;;;3.20;99.90;;;;;;5048818;28;20196;-58
2022/12/08 08:07:49;;;;;;;17.17;10.27;;;3.20;99.90;;;;;;4969764;28;20218;-58
2022/12/08 08:10:19;;;;;;;17.17;10.07;;;3.20;99.90;;;;;;4970829;28;20262;-58
2022/12/08 08:12:49;;;;;;;20.57;11.00;;;3.20;99.90;;;;;;4978042;28;20201;-58
2022/12/08 08:15:20;;;;;;;17.60;11.00;;;3.20;99.90;;;;;;4983171;28;20196;-57
2022/12/08 08:17:50;;;;;;;18.13;10.87;;;3.20;99.90;;;;;;5002743;28;20593;-58
2022/12/08 08:20:19;;;;;;;15.93;10.23;;;3.30;99.90;;;;;;4975006;28;20196;-58
2022/12/08 08:22:50;;;;;;;18.83;10.73;;;3.20;99.90;;;;;;4971062;28;20207;-57
2022/12/08 08:25:22;;;;;;;19.73;11.50;;;3.30;99.90;;;;;;4975616;28;20567;-58
2022/12/08 08:27:51;;;;;;;16.23;11.37;;;3.30;99.90;;;;;;4971183;28;20222;-58
2022/12/08 08:30:19;;;;;;;22.00;11.93;;;3.30;99.90;;;;;;4987530;28;20202;-58
2022/12/08 08:32:49;;;;;;;22.03;11.57;;;3.30;99.90;;;;;;4974789;28;20260;-58
2022/12/08 08:35:17;;;;;;;24.07;11.83;;;3.20;99.90;;;;;;4971347;28;20192;-58
2022/12/08 08:37:46;;;;;;;24.17;10.50;;;3.20;99.90;;;;;;4969137;28;20224;-58
2022/12/08 08:40:16;;;;;;;19.30;12.10;;;3.20;99.90;;;;;;4970672;28;20192;-58
2022/12/08 08:42:46;;;;;;;23.97;12.13;;;3.30;99.90;;;;;;4974630;28;20203;-58
2022/12/08 08:45:14;;;;;;;17.97;11.80;;;3.30;99.90;;;;;;4987921;28;20213;-58
2022/12/08 08:47:43;;;;;;;23.27;13.00;;;3.40;99.90;;;;;;4978331;28;20682;-58
2022/12/08 08:50:12;;;;;;;22.70;12.03;;;3.30;99.90;;;;;;4971290;28;20191;-58
2022/12/08 08:52:40;;;;;;;21.53;12.63;;;3.40;99.90;;;;;;4983386;28;20210;-58
2022/12/08 08:55:09;;;;;;;33.40;13.80;;;3.40;99.90;;;;;;4970758;28;20199;-58
2022/12/08 08:57:37;;;;;;;24.93;13.73;;;3.40;99.90;;;;;;4970516;28;20282;-58
2022/12/08 09:00:09;;;;;;;38.67;17.60;;;3.40;99.90;;;;;;5022793;28;20643;-57
2022/12/08 09:02:38;;;;;;;26.30;13.90;;;3.40;99.90;;;;;;4989272;28;20199;-58
2022/12/08 09:05:07;;;;;;;24.67;13.40;;;3.40;99.90;;;;;;4977484;28;20196;-57
2022/12/08 09:07:36;;;;;;;40.90;23.00;;;3.40;99.90;;;;;;4973167;28;20215;-58
2022/12/08 09:10:05;;;;;;;37.23;20.77;;;3.40;99.90;;;;;;4970953;28;20708;-58
2022/12/08 09:12:34;;;;;;;26.37;14.30;;;3.40;99.90;;;;;;4996420;28;20779;-58
2022/12/08 09:15:02;;;;;;;28.47;14.70;;;3.40;99.90;;;;;;5000425;28;20209;-58
2022/12/08 09:17:31;;;;;;;28.20;15.87;;;3.40;99.90;;;;;;4994076;28;20233;-58
2022/12/08 09:20:01;;;;;;;40.50;24.07;;;3.40;99.90;;;;;;4987213;28;20200;-58
2022/12/08 09:22:30;;;;;;;31.37;19.73;;;3.40;99.90;;;;;;4978790;28;20286;-58
2022/12/08 09:24:58;;;;;;;27.77;14.80;;;3.50;99.90;;;;;;4986712;28;20287;-58
2022/12/08 09:27:27;;;;;;;26.63;15.60;;;3.60;99.90;;;;;;5006009;28;20294;-58
2022/12/08 09:29:55;;;;;;;25.07;17.57;;;3.60;99.90;;;;;;4987540;28;20199;-58
2022/12/08 09:32:23;;;;;;;23.27;14.37;;;3.60;99.90;;;;;;4973533;28;20194;-58
2022/12/08 09:34:54;;;;;;;45.83;26.47;;;3.60;99.90;;;;;;4976765;28;20556;-58
2022/12/08 09:37:22;;;;;;;32.63;19.00;;;3.70;99.90;;;;;;4986246;28;20199;-58
2022/12/08 09:39:50;;;;;;;29.07;18.67;;;3.70;99.90;;;;;;4989557;28;20195;-58
2022/12/08 09:42:28;;;;;;;29.47;13.33;;;3.90;99.90;;;;;;4975025;28;20291;-58
2022/12/08 09:45:03;;;;;;;32.47;16.87;;;4.10;99.90;;;;;;4977372;28;20226;-57
2022/12/08 09:47:37;;;;;;;27.70;12.73;;;4.40;99.90;;;;;;4975701;28;20214;-58
2022/12/08 09:50:15;;;;;;;22.07;12.03;;;4.50;99.90;;;;;;4970074;28;20200;-58
2022/12/08 09:52:47;;;;;;;21.90;11.53;;;4.70;99.90;;;;;;4970193;28;20207;-58
2022/12/08 09:55:22;;;;;;;18.07;12.37;;;5.00;99.90;;;;;;4988680;28;20312;-58
2022/12/08 09:57:57;;;;;;;23.90;12.33;;;5.30;99.90;;;;;;4982976;28;20198;-58
2022/12/08 10:00:26;;;;;;;18.33;10.93;;;5.60;99.90;;;;;;5017244;28;20195;-58
2022/12/08 10:02:56;;;;;;;16.70;11.00;;;5.90;99.90;;;;;;4990302;28;20575;-58
2022/12/08 10:05:28;;;;;;;24.93;12.10;;;6.10;99.90;;;;;;4976199;28;20199;-58
2022/12/08 10:08:06;;;;;;;22.23;10.80;;;6.10;99.90;;;;;;4982712;28;20267;-58
2022/12/08 10:10:41;;;;;;;19.47;12.67;;;6.20;99.90;;;;;;4973976;28;20227;-57
2022/12/08 10:13:20;;;;;;;24.07;13.60;;;6.40;99.90;;;;;;5003451;28;20186;-58
2022/12/08 10:15:57;;;;;;;14.73;9.00;;;6.60;99.90;;;;;;4984952;28;20191;-58
2022/12/08 10:18:29;;;;;;;18.37;9.33;;;6.70;99.90;;;;;;4971938;28;20282;-58
2022/12/08 10:21:13;;;;;;;18.07;9.33;;;6.80;99.90;;;;;;4983458;28;20206;-58
2022/12/08 10:23:44;;;;;;;16.80;9.63;;;7.00;99.90;;;;;;4985230;28;20199;-58
2022/12/08 10:26:15;;;;;;;17.93;9.80;;;7.20;99.90;;;;;;4973577;28;20211;-58
2022/12/08 10:28:44;;;;;;;14.87;9.93;;;7.50;99.90;;;;;;4978960;28;20223;-58
2022/12/08 10:31:17;;;;;;;14.00;9.57;;;7.70;99.90;;;;;;4982598;28;20199;-58
2022/12/08 10:33:56;;;;;;;16.70;10.47;;;7.80;99.90;;;;;;4982176;28;20277;-58
2022/12/08 10:36:44;;;;;;;14.07;9.90;;;7.90;99.90;;;;;;4979301;28;20427;-58
2022/12/08 10:39:44;;;;;;;12.97;9.57;;;8.00;99.90;;;;;;4997344;28;20210;-58
2022/12/08 10:42:20;;;;;;;15.93;9.70;;;7.90;99.90;;;;;;5041409;28;20189;-58
2022/12/08 10:44:58;;;;;;;15.53;9.90;;;7.60;99.90;;;;;;5017100;28;20324;-58
2022/12/08 10:47:28;;;;;;;13.57;8.17;;;7.30;99.90;;;;;;4976926;28;20215;-58
2022/12/08 10:50:19;;;;;;;13.07;8.10;;;7.10;99.90;;;;;;4982513;28;20195;-58
2022/12/08 10:52:55;;;;;;;14.03;8.00;;;6.80;99.90;;;;;;4983073;28;20203;-58
2022/12/08 10:55:24;;;;;;;9.77;7.20;;;6.50;99.90;;;;;;4990620;28;20698;-58
2022/12/08 10:57:52;;;;;;;14.00;7.70;;;6.30;99.90;;;;;;4982542;28;20787;-58
2022/12/08 11:00:23;;;;;;;8.83;7.30;;;6.20;99.90;;;;;;4988361;28;20225;-58
2022/12/08 11:03:20;;;;;;;16.30;7.63;;;6.10;99.90;;;;;;4981686;28;20668;-58
2022/12/08 11:05:48;;;;;;;12.77;8.20;;;6.00;99.90;;;;;;4989344;28;20237;-58
2022/12/08 11:08:19;;;;;;;11.90;7.87;;;6.00;99.90;;;;;;4983316;28;20219;-59
2022/12/08 11:10:47;;;;;;;13.00;7.47;;;6.00;99.90;;;;;;5005816;28;20200;-58
2022/12/08 11:13:24;;;;;;;13.27;7.50;;;5.90;99.90;;;;;;4983015;28;20302;-59
2022/12/08 11:15:55;;;;;;;18.70;7.90;;;5.80;99.90;;;;;;5010878;28;20200;-58
2022/12/08 11:18:27;;;;;;;13.33;7.70;;;5.90;99.90;;;;;;4982254;28;20211;-58
2022/12/08 11:21:00;;;;;;;10.50;7.57;;;5.90;99.90;;;;;;5016273;28;20278;-58
2022/12/08 11:23:30;;;;;;;15.73;7.67;;;5.90;99.90;;;;;;5013191;28;20199;-59
2022/12/08 11:26:07;;;;;;;15.10;7.83;;;5.90;99.90;;;;;;4989213;28;20215;-58
2022/12/08 11:28:37;;;;;;;12.37;8.20;;;6.00;99.90;;;;;;4981071;28;20215;-58
2022/12/08 11:31:17;;;;;;;16.03;9.07;;;6.00;99.90;;;;;;5003667;28;20211;-58
2022/12/08 11:33:47;;;;;;;12.93;8.10;;;6.10;99.90;;;;;;4980183;28;20684;-58
2022/12/08 11:36:16;;;;;;;16.13;7.83;;;6.00;99.90;;;;;;4987626;28;20222;-58
2022/12/08 11:38:50;;;;;;;12.77;7.30;;;6.00;99.90;;;;;;4978965;28;20192;-58
2022/12/08 11:41:22;;;;;;;11.47;7.03;;;6.00;99.90;;;;;;4983451;28;20191;-58
2022/12/08 11:43:56;;;;;;;15.80;9.23;;;6.00;99.90;;;;;;4985909;28;20203;-58
2022/12/08 11:46:28;;;;;;;15.80;8.10;;;6.00;99.90;;;;;;4981993;28;20226;-58
2022/12/08 11:49:01;;;;;;;12.67;7.57;;;6.10;99.90;;;;;;4980661;28;20215;-58
2022/12/08 11:51:36;;;;;;;11.17;6.80;;;6.00;99.90;;;;;;4973380;28;20203;-58
2022/12/08 11:54:19;;;;;;;19.77;8.03;;;6.00;99.90;;;;;;4970445;28;20294;-58
2022/12/08 11:56:50;;;;;;;10.53;7.57;;;5.90;99.90;;;;;;4976749;28;20214;-58
2022/12/08 11:59:26;;;;;;;14.83;7.37;;;6.10;99.90;;;;;;4979231;28;20199;-58
2022/12/08 12:01:55;;;;;;;14.37;7.43;;;6.30;99.90;;;;;;4977403;28;20199;-58
2022/12/08 12:04:29;;;;;;;12.97;7.63;;;6.50;99.90;;;;;;4979310;28;20211;-58
2022/12/08 12:07:30;;;;;;;11.20;7.40;;;6.60;99.90;;;;;;4982735;28;20199;-58
2022/12/08 12:10:20;;;;;;;12.97;8.20;;;6.60;99.90;;;;;;4975041;28;20182;-58
2022/12/08 12:13:08;;;;;;;14.47;9.27;;;6.60;99.90;;;;;;4980546;28;20191;-58
2022/12/08 12:16:05;;;;;;;11.57;8.40;;;6.70;99.90;;;;;;4984681;28;20557;-58
2022/12/08 12:18:39;;;;;;;12.13;7.73;;;6.80;99.90;;;;;;4977471;28;20219;-59
2022/12/08 12:21:12;;;;;;;12.73;8.50;;;6.70;99.90;;;;;;4972767;28;20518;-58
2022/12/08 12:23:44;;;;;;;13.53;9.33;;;6.70;99.90;;;;;;4977853;28;20207;-58
2022/12/08 12:26:21;;;;;;;14.53;8.00;;;6.70;99.90;;;;;;4991190;28;20199;-58
2022/12/08 12:28:53;;;;;;;12.10;7.63;;;6.70;99.90;;;;;;4987856;28;20218;-58
2022/12/08 12:31:25;;;;;;;12.13;7.50;;;6.80;99.90;;;;;;4980245;28;20199;-59
2022/12/08 12:34:03;;;;;;;14.50;7.40;;;6.80;99.90;;;;;;4978551;28;20205;-58
2022/12/08 12:36:32;;;;;;;10.43;6.40;;;6.80;99.90;;;;;;4977595;28;20214;-59
2022/12/08 12:39:02;;;;;;;11.00;6.33;;;6.90;99.90;;;;;;4989757;28;20198;-58
2022/12/08 12:41:42;;;;;;;9.47;6.23;;;7.00;99.90;;;;;;4972231;28;20200;-58
2022/12/08 12:44:37;;;;;;;13.40;7.03;;;7.00;99.90;;;;;;4974806;28;20202;-58
2022/12/08 12:47:11;;;;;;;10.20;6.47;;;7.10;99.90;;;;;;4985919;28;20219;-58
2022/12/08 12:50:15;;;;;;;8.37;6.10;;;7.20;99.90;;;;;;4980395;28;20306;-58
2022/12/08 12:52:48;;;;;;;8.63;5.77;;;7.40;99.90;;;;;;4991638;28;20260;-58
2022/12/08 12:55:21;;;;;;;11.37;6.73;;;7.60;99.90;;;;;;4974358;28;20724;-59
2022/12/08 12:57:54;;;;;;;6.10;5.47;;;7.80;99.90;;;;;;5003559;28;20537;-58
2022/12/08 13:00:23;;;;;;;9.40;6.00;;;7.60;99.90;;;;;;5008429;28;20198;-58
2022/12/08 13:02:53;;;;;;;13.20;6.10;;;7.50;99.90;;;;;;4964490;28;20195;-58
2022/12/08 13:05:25;;;;;;;6.67;4.63;;;7.30;99.90;;;;;;4970929;28;20264;-58
2022/12/08 13:07:56;;;;;;;6.73;5.00;;;7.20;99.90;;;;;;4977128;28;20203;-58